sensor_id;sensor_type;location;lat;lon;timestamp;P1;durP1;ratioP1;P2;durP2;ratioP2
62582;SDS011;48641;51.676;5.808;2023-07-31T00:00:48;4.55;;;1.27;;
62582;SDS011;48641;51.676;5.808;2023-07-31T00:03:13;4.47;;;1.40;;
62582;SDS011;48641;51.676;5.808;2023-07-31T00:05:39;3.03;;;1.20;;
62582;SDS011;48641;51.676;5.808;2023-07-31T00:08:05;3.03;;;1.20;;
62582;SDS011;48641;51.676;5.808;2023-07-31T00:10:30;4.35;;;1.60;;
62582;SDS011;48641;51.676;5.808;2023-07-31T00:12:56;4.18;;;1.42;;
62582;SDS011;48641;51.676;5.808;2023-07-31T00:15:22;4.63;;;1.42;;
62582;SDS011;48641;51.676;5.808;2023-07-31T00:17:47;4.78;;;1.60;;
62582;SDS011;48641;51.676;5.808;2023-07-31T00:20:13;4.97;;;1.65;;
62582;SDS011;48641;51.676;5.808;2023-07-31T00:22:41;4.07;;;1.63;;
62582;SDS011;48641;51.676;5.808;2023-07-31T00:25:06;6.43;;;2.10;;
62582;SDS011;48641;51.676;5.808;2023-07-31T00:27:32;3.25;;;1.45;;
62582;SDS011;48641;51.676;5.808;2023-07-31T00:29:58;4.60;;;1.40;;
62582;SDS011;48641;51.676;5.808;2023-07-31T00:32:23;4.03;;;1.60;;
62582;SDS011;48641;51.676;5.808;2023-07-31T00:34:49;4.05;;;1.30;;
62582;SDS011;48641;51.676;5.808;2023-07-31T00:37:15;3.92;;;1.30;;
62582;SDS011;48641;51.676;5.808;2023-07-31T00:39:40;4.35;;;1.67;;
62582;SDS011;48641;51.676;5.808;2023-07-31T00:42:06;4.65;;;1.70;;
62582;SDS011;48641;51.676;5.808;2023-07-31T00:44:32;5.05;;;1.60;;
62582;SDS011;48641;51.676;5.808;2023-07-31T00:46:58;4.95;;;1.85;;
62582;SDS011;48641;51.676;5.808;2023-07-31T00:49:24;5.55;;;1.95;;
62582;SDS011;48641;51.676;5.808;2023-07-31T00:51:51;5.10;;;1.80;;
62582;SDS011;48641;51.676;5.808;2023-07-31T00:54:18;5.38;;;1.95;;
62582;SDS011;48641;51.676;5.808;2023-07-31T00:56:45;5.78;;;2.00;;
62582;SDS011;48641;51.676;5.808;2023-07-31T00:59:11;3.83;;;1.50;;
62582;SDS011;48641;51.676;5.808;2023-07-31T01:01:37;4.97;;;1.83;;
62582;SDS011;48641;51.676;5.808;2023-07-31T01:04:03;4.57;;;2.00;;
62582;SDS011;48641;51.676;5.808;2023-07-31T01:09:06;5.57;;;2.00;;
62582;SDS011;48641;51.676;5.808;2023-07-31T01:11:46;6.00;;;1.75;;
62582;SDS011;48641;51.676;5.808;2023-07-31T01:14:17;5.63;;;1.80;;
62582;SDS011;48641;51.676;5.808;2023-07-31T01:16:42;5.32;;;2.00;;
62582;SDS011;48641;51.676;5.808;2023-07-31T01:19:08;5.72;;;2.00;;
62582;SDS011;48641;51.676;5.808;2023-07-31T01:24:17;4.60;;;1.75;;
62582;SDS011;48641;51.676;5.808;2023-07-31T01:26:49;5.93;;;2.05;;
62582;SDS011;48641;51.676;5.808;2023-07-31T01:32:16;6.50;;;2.22;;
62582;SDS011;48641;51.676;5.808;2023-07-31T01:34:44;6.20;;;2.35;;
62582;SDS011;48641;51.676;5.808;2023-07-31T01:37:11;4.50;;;1.80;;
62582;SDS011;48641;51.676;5.808;2023-07-31T01:39:36;5.97;;;1.85;;
62582;SDS011;48641;51.676;5.808;2023-07-31T01:42:02;5.43;;;2.10;;
62582;SDS011;48641;51.676;5.808;2023-07-31T01:44:27;6.32;;;2.25;;
62582;SDS011;48641;51.676;5.808;2023-07-31T01:46:53;5.78;;;2.30;;
62582;SDS011;48641;51.676;5.808;2023-07-31T01:49:19;6.13;;;1.90;;
62582;SDS011;48641;51.676;5.808;2023-07-31T01:51:44;5.72;;;2.22;;
62582;SDS011;48641;51.676;5.808;2023-07-31T01:54:10;4.57;;;1.85;;
62582;SDS011;48641;51.676;5.808;2023-07-31T01:56:36;6.18;;;2.20;;
62582;SDS011;48641;51.676;5.808;2023-07-31T01:59:01;6.05;;;2.13;;
62582;SDS011;48641;51.676;5.808;2023-07-31T02:01:27;5.78;;;2.22;;
62582;SDS011;48641;51.676;5.808;2023-07-31T02:03:53;6.28;;;2.25;;
62582;SDS011;48641;51.676;5.808;2023-07-31T02:06:19;6.28;;;2.30;;
62582;SDS011;48641;51.676;5.808;2023-07-31T02:08:44;5.95;;;2.17;;
62582;SDS011;48641;51.676;5.808;2023-07-31T02:11:10;5.72;;;2.20;;
62582;SDS011;48641;51.676;5.808;2023-07-31T02:13:36;6.22;;;2.10;;
62582;SDS011;48641;51.676;5.808;2023-07-31T02:16:01;6.90;;;2.30;;
62582;SDS011;48641;51.676;5.808;2023-07-31T02:18:27;5.18;;;2.10;;
62582;SDS011;48641;51.676;5.808;2023-07-31T02:20:53;6.82;;;2.30;;
62582;SDS011;48641;51.676;5.808;2023-07-31T02:23:18;6.80;;;2.30;;
62582;SDS011;48641;51.676;5.808;2023-07-31T02:25:44;6.40;;;2.28;;
62582;SDS011;48641;51.676;5.808;2023-07-31T02:28:10;6.30;;;2.10;;
62582;SDS011;48641;51.676;5.808;2023-07-31T02:30:36;6.10;;;2.20;;
62582;SDS011;48641;51.676;5.808;2023-07-31T02:33:02;5.85;;;2.20;;
62582;SDS011;48641;51.676;5.808;2023-07-31T02:35:27;6.47;;;2.00;;
62582;SDS011;48641;51.676;5.808;2023-07-31T02:37:53;7.13;;;2.28;;
62582;SDS011;48641;51.676;5.808;2023-07-31T02:40:19;7.32;;;2.40;;
62582;SDS011;48641;51.676;5.808;2023-07-31T02:42:44;5.85;;;2.10;;
62582;SDS011;48641;51.676;5.808;2023-07-31T02:45:10;6.90;;;1.95;;
62582;SDS011;48641;51.676;5.808;2023-07-31T02:47:36;6.20;;;2.03;;
62582;SDS011;48641;51.676;5.808;2023-07-31T02:50:02;6.72;;;2.13;;
62582;SDS011;48641;51.676;5.808;2023-07-31T02:52:28;6.78;;;2.25;;
62582;SDS011;48641;51.676;5.808;2023-07-31T02:54:54;6.10;;;2.05;;
62582;SDS011;48641;51.676;5.808;2023-07-31T02:57:19;6.00;;;2.00;;
62582;SDS011;48641;51.676;5.808;2023-07-31T02:59:45;7.00;;;2.55;;
62582;SDS011;48641;51.676;5.808;2023-07-31T03:02:10;7.60;;;2.30;;
62582;SDS011;48641;51.676;5.808;2023-07-31T03:04:37;6.35;;;2.28;;
62582;SDS011;48641;51.676;5.808;2023-07-31T03:07:03;6.95;;;2.15;;
62582;SDS011;48641;51.676;5.808;2023-07-31T03:09:29;7.22;;;2.28;;
62582;SDS011;48641;51.676;5.808;2023-07-31T03:11:54;5.90;;;2.15;;
62582;SDS011;48641;51.676;5.808;2023-07-31T03:14:20;5.90;;;1.90;;
62582;SDS011;48641;51.676;5.808;2023-07-31T03:16:46;7.53;;;2.30;;
62582;SDS011;48641;51.676;5.808;2023-07-31T03:19:11;6.20;;;2.28;;
62582;SDS011;48641;51.676;5.808;2023-07-31T03:21:37;7.45;;;2.38;;
62582;SDS011;48641;51.676;5.808;2023-07-31T03:24:02;7.68;;;2.95;;
62582;SDS011;48641;51.676;5.808;2023-07-31T03:26:30;7.78;;;2.60;;
62582;SDS011;48641;51.676;5.808;2023-07-31T03:28:56;5.35;;;2.00;;
62582;SDS011;48641;51.676;5.808;2023-07-31T03:31:22;6.68;;;2.38;;
62582;SDS011;48641;51.676;5.808;2023-07-31T03:33:47;6.57;;;2.33;;
62582;SDS011;48641;51.676;5.808;2023-07-31T03:36:13;7.28;;;2.45;;
62582;SDS011;48641;51.676;5.808;2023-07-31T03:38:39;7.65;;;2.50;;
62582;SDS011;48641;51.676;5.808;2023-07-31T03:41:04;7.68;;;2.55;;
62582;SDS011;48641;51.676;5.808;2023-07-31T03:43:31;5.15;;;2.00;;
62582;SDS011;48641;51.676;5.808;2023-07-31T03:45:58;5.60;;;1.90;;
62582;SDS011;48641;51.676;5.808;2023-07-31T03:48:25;7.55;;;2.42;;
62582;SDS011;48641;51.676;5.808;2023-07-31T03:50:51;7.60;;;2.50;;
62582;SDS011;48641;51.676;5.808;2023-07-31T03:53:16;6.43;;;2.30;;
62582;SDS011;48641;51.676;5.808;2023-07-31T03:55:42;6.57;;;2.28;;
62582;SDS011;48641;51.676;5.808;2023-07-31T03:58:08;5.50;;;1.98;;
62582;SDS011;48641;51.676;5.808;2023-07-31T04:00:33;7.45;;;2.38;;
62582;SDS011;48641;51.676;5.808;2023-07-31T04:02:59;7.18;;;2.30;;
62582;SDS011;48641;51.676;5.808;2023-07-31T04:05:24;8.85;;;2.83;;
62582;SDS011;48641;51.676;5.808;2023-07-31T04:07:50;6.60;;;3.05;;
62582;SDS011;48641;51.676;5.808;2023-07-31T04:10:15;6.22;;;2.22;;
62582;SDS011;48641;51.676;5.808;2023-07-31T04:12:41;8.32;;;2.53;;
62582;SDS011;48641;51.676;5.808;2023-07-31T04:15:07;7.25;;;2.50;;
62582;SDS011;48641;51.676;5.808;2023-07-31T04:17:33;5.82;;;2.20;;
62582;SDS011;48641;51.676;5.808;2023-07-31T04:19:58;8.68;;;2.70;;
62582;SDS011;48641;51.676;5.808;2023-07-31T04:22:24;6.28;;;2.05;;
62582;SDS011;48641;51.676;5.808;2023-07-31T04:24:50;8.13;;;2.20;;
62582;SDS011;48641;51.676;5.808;2023-07-31T04:27:15;6.85;;;2.10;;
62582;SDS011;48641;51.676;5.808;2023-07-31T04:29:41;6.95;;;2.33;;
62582;SDS011;48641;51.676;5.808;2023-07-31T04:32:07;7.70;;;2.70;;
62582;SDS011;48641;51.676;5.808;2023-07-31T04:34:33;7.63;;;2.33;;
62582;SDS011;48641;51.676;5.808;2023-07-31T04:36:59;6.65;;;2.10;;
62582;SDS011;48641;51.676;5.808;2023-07-31T04:39:24;7.07;;;2.35;;
62582;SDS011;48641;51.676;5.808;2023-07-31T04:41:50;5.47;;;2.25;;
62582;SDS011;48641;51.676;5.808;2023-07-31T04:44:15;6.47;;;2.00;;
62582;SDS011;48641;51.676;5.808;2023-07-31T04:46:41;6.13;;;2.17;;
62582;SDS011;48641;51.676;5.808;2023-07-31T04:49:06;6.13;;;2.25;;
62582;SDS011;48641;51.676;5.808;2023-07-31T04:51:32;6.60;;;2.22;;
62582;SDS011;48641;51.676;5.808;2023-07-31T04:53:58;5.72;;;2.17;;
62582;SDS011;48641;51.676;5.808;2023-07-31T04:56:23;6.60;;;2.30;;
62582;SDS011;48641;51.676;5.808;2023-07-31T04:58:49;6.20;;;2.17;;
62582;SDS011;48641;51.676;5.808;2023-07-31T05:01:15;7.03;;;2.20;;
62582;SDS011;48641;51.676;5.808;2023-07-31T05:03:40;8.80;;;2.20;;
62582;SDS011;48641;51.676;5.808;2023-07-31T05:06:06;6.07;;;2.35;;
62582;SDS011;48641;51.676;5.808;2023-07-31T05:08:31;6.95;;;2.42;;
62582;SDS011;48641;51.676;5.808;2023-07-31T05:10:58;6.40;;;2.30;;
62582;SDS011;48641;51.676;5.808;2023-07-31T05:13:24;5.50;;;2.20;;
62582;SDS011;48641;51.676;5.808;2023-07-31T05:15:49;6.78;;;2.17;;
62582;SDS011;48641;51.676;5.808;2023-07-31T05:18:15;6.20;;;2.25;;
62582;SDS011;48641;51.676;5.808;2023-07-31T05:20:41;5.95;;;2.25;;
62582;SDS011;48641;51.676;5.808;2023-07-31T05:23:06;6.57;;;2.20;;
62582;SDS011;48641;51.676;5.808;2023-07-31T05:25:32;7.40;;;2.20;;
62582;SDS011;48641;51.676;5.808;2023-07-31T05:27:57;6.22;;;2.22;;
62582;SDS011;48641;51.676;5.808;2023-07-31T05:30:26;7.13;;;2.20;;
62582;SDS011;48641;51.676;5.808;2023-07-31T05:32:52;6.72;;;2.20;;
62582;SDS011;48641;51.676;5.808;2023-07-31T05:35:17;6.88;;;2.28;;
62582;SDS011;48641;51.676;5.808;2023-07-31T05:37:45;6.90;;;2.33;;
62582;SDS011;48641;51.676;5.808;2023-07-31T05:40:11;7.15;;;2.30;;
62582;SDS011;48641;51.676;5.808;2023-07-31T05:42:36;7.10;;;2.38;;
62582;SDS011;48641;51.676;5.808;2023-07-31T05:45:03;6.65;;;2.20;;
62582;SDS011;48641;51.676;5.808;2023-07-31T05:47:33;6.38;;;1.95;;
62582;SDS011;48641;51.676;5.808;2023-07-31T05:49:59;6.57;;;2.55;;
62582;SDS011;48641;51.676;5.808;2023-07-31T05:52:25;6.75;;;2.80;;
62582;SDS011;48641;51.676;5.808;2023-07-31T05:55:06;6.47;;;2.22;;
62582;SDS011;48641;51.676;5.808;2023-07-31T05:58:11;6.57;;;2.20;;
62582;SDS011;48641;51.676;5.808;2023-07-31T06:00:42;7.00;;;2.33;;
62582;SDS011;48641;51.676;5.808;2023-07-31T06:03:14;5.40;;;1.90;;
62582;SDS011;48641;51.676;5.808;2023-07-31T06:05:43;6.38;;;2.10;;
62582;SDS011;48641;51.676;5.808;2023-07-31T06:08:41;6.15;;;1.92;;
62582;SDS011;48641;51.676;5.808;2023-07-31T06:11:11;5.53;;;2.08;;
62582;SDS011;48641;51.676;5.808;2023-07-31T06:13:37;6.80;;;2.25;;
62582;SDS011;48641;51.676;5.808;2023-07-31T06:16:02;6.88;;;2.33;;
62582;SDS011;48641;51.676;5.808;2023-07-31T06:18:31;5.80;;;2.28;;
62582;SDS011;48641;51.676;5.808;2023-07-31T06:20:57;5.93;;;2.40;;
62582;SDS011;48641;51.676;5.808;2023-07-31T06:23:23;5.60;;;1.90;;
62582;SDS011;48641;51.676;5.808;2023-07-31T06:25:49;5.68;;;2.03;;
62582;SDS011;48641;51.676;5.808;2023-07-31T06:28:14;6.28;;;1.98;;
62582;SDS011;48641;51.676;5.808;2023-07-31T06:30:40;6.60;;;1.90;;
62582;SDS011;48641;51.676;5.808;2023-07-31T06:33:05;5.18;;;1.90;;
62582;SDS011;48641;51.676;5.808;2023-07-31T06:35:31;6.43;;;2.00;;
62582;SDS011;48641;51.676;5.808;2023-07-31T06:37:56;5.85;;;1.80;;
62582;SDS011;48641;51.676;5.808;2023-07-31T06:40:22;6.72;;;2.30;;
62582;SDS011;48641;51.676;5.808;2023-07-31T06:42:48;5.93;;;1.85;;
62582;SDS011;48641;51.676;5.808;2023-07-31T06:45:13;5.25;;;1.90;;
62582;SDS011;48641;51.676;5.808;2023-07-31T06:47:39;5.40;;;1.65;;
62582;SDS011;48641;51.676;5.808;2023-07-31T06:50:05;5.32;;;1.60;;
62582;SDS011;48641;51.676;5.808;2023-07-31T06:52:30;5.25;;;2.15;;
62582;SDS011;48641;51.676;5.808;2023-07-31T06:55:03;6.32;;;2.00;;
62582;SDS011;48641;51.676;5.808;2023-07-31T06:57:43;5.97;;;2.30;;
62582;SDS011;48641;51.676;5.808;2023-07-31T07:00:08;5.38;;;2.00;;
62582;SDS011;48641;51.676;5.808;2023-07-31T07:02:34;4.80;;;1.80;;
62582;SDS011;48641;51.676;5.808;2023-07-31T07:05:00;5.63;;;1.90;;
62582;SDS011;48641;51.676;5.808;2023-07-31T07:07:26;5.30;;;1.70;;
62582;SDS011;48641;51.676;5.808;2023-07-31T07:09:51;6.38;;;1.90;;
62582;SDS011;48641;51.676;5.808;2023-07-31T07:12:17;4.97;;;1.80;;
62582;SDS011;48641;51.676;5.808;2023-07-31T07:14:42;5.85;;;2.08;;
62582;SDS011;48641;51.676;5.808;2023-07-31T07:17:08;4.75;;;1.75;;
62582;SDS011;48641;51.676;5.808;2023-07-31T07:19:34;5.25;;;1.88;;
62582;SDS011;48641;51.676;5.808;2023-07-31T07:21:59;4.70;;;1.67;;
62582;SDS011;48641;51.676;5.808;2023-07-31T07:24:27;5.25;;;1.67;;
62582;SDS011;48641;51.676;5.808;2023-07-31T07:26:52;5.55;;;1.90;;
62582;SDS011;48641;51.676;5.808;2023-07-31T07:29:18;5.50;;;1.80;;
62582;SDS011;48641;51.676;5.808;2023-07-31T07:31:43;4.00;;;1.58;;
62582;SDS011;48641;51.676;5.808;2023-07-31T07:34:09;5.20;;;1.60;;
62582;SDS011;48641;51.676;5.808;2023-07-31T07:36:35;5.80;;;2.03;;
62582;SDS011;48641;51.676;5.808;2023-07-31T07:39:00;5.40;;;1.80;;
62582;SDS011;48641;51.676;5.808;2023-07-31T07:41:26;5.07;;;1.70;;
62582;SDS011;48641;51.676;5.808;2023-07-31T07:43:51;4.03;;;1.67;;
62582;SDS011;48641;51.676;5.808;2023-07-31T07:46:17;5.13;;;1.60;;
62582;SDS011;48641;51.676;5.808;2023-07-31T07:48:42;3.97;;;1.55;;
62582;SDS011;48641;51.676;5.808;2023-07-31T07:51:08;4.45;;;1.60;;
62582;SDS011;48641;51.676;5.808;2023-07-31T07:53:34;3.65;;;1.30;;
62582;SDS011;48641;51.676;5.808;2023-07-31T07:55:59;4.85;;;1.73;;
62582;SDS011;48641;51.676;5.808;2023-07-31T07:58:25;4.63;;;1.40;;
62582;SDS011;48641;51.676;5.808;2023-07-31T08:00:51;5.60;;;1.70;;
62582;SDS011;48641;51.676;5.808;2023-07-31T08:03:17;5.90;;;1.67;;
62582;SDS011;48641;51.676;5.808;2023-07-31T08:05:43;5.90;;;1.65;;
62582;SDS011;48641;51.676;5.808;2023-07-31T08:08:13;3.85;;;1.50;;
62582;SDS011;48641;51.676;5.808;2023-07-31T08:10:42;5.75;;;1.75;;
62582;SDS011;48641;51.676;5.808;2023-07-31T08:13:09;5.43;;;1.40;;
62582;SDS011;48641;51.676;5.808;2023-07-31T08:15:38;5.13;;;1.58;;
62582;SDS011;48641;51.676;5.808;2023-07-31T08:18:06;6.68;;;1.80;;
62582;SDS011;48641;51.676;5.808;2023-07-31T08:20:32;5.32;;;1.80;;
62582;SDS011;48641;51.676;5.808;2023-07-31T08:22:58;5.78;;;1.77;;
62582;SDS011;48641;51.676;5.808;2023-07-31T08:25:23;5.35;;;1.80;;
62582;SDS011;48641;51.676;5.808;2023-07-31T08:27:49;4.35;;;1.50;;
62582;SDS011;48641;51.676;5.808;2023-07-31T08:30:17;5.63;;;1.50;;
62582;SDS011;48641;51.676;5.808;2023-07-31T08:32:43;4.72;;;1.65;;
62582;SDS011;48641;51.676;5.808;2023-07-31T08:35:09;5.75;;;1.60;;
62582;SDS011;48641;51.676;5.808;2023-07-31T08:37:35;5.47;;;1.85;;
62582;SDS011;48641;51.676;5.808;2023-07-31T08:40:01;6.88;;;2.03;;
62582;SDS011;48641;51.676;5.808;2023-07-31T08:42:30;5.55;;;1.50;;
62582;SDS011;48641;51.676;5.808;2023-07-31T08:44:56;7.28;;;1.80;;
62582;SDS011;48641;51.676;5.808;2023-07-31T08:47:22;4.65;;;1.63;;
62582;SDS011;48641;51.676;5.808;2023-07-31T08:49:49;8.63;;;2.00;;
62582;SDS011;48641;51.676;5.808;2023-07-31T08:52:16;7.55;;;1.83;;
62582;SDS011;48641;51.676;5.808;2023-07-31T08:54:42;7.35;;;2.15;;
62582;SDS011;48641;51.676;5.808;2023-07-31T08:57:07;7.63;;;1.90;;
62582;SDS011;48641;51.676;5.808;2023-07-31T08:59:35;6.65;;;1.52;;
62582;SDS011;48641;51.676;5.808;2023-07-31T09:02:05;4.10;;;1.30;;
62582;SDS011;48641;51.676;5.808;2023-07-31T09:04:33;5.10;;;1.33;;
62582;SDS011;48641;51.676;5.808;2023-07-31T09:07:02;8.00;;;2.45;;
62582;SDS011;48641;51.676;5.808;2023-07-31T09:09:32;5.60;;;1.60;;
62582;SDS011;48641;51.676;5.808;2023-07-31T09:11:58;5.68;;;1.55;;
62582;SDS011;48641;51.676;5.808;2023-07-31T09:14:24;6.15;;;1.67;;
62582;SDS011;48641;51.676;5.808;2023-07-31T09:16:54;5.60;;;1.63;;
62582;SDS011;48641;51.676;5.808;2023-07-31T09:22:02;4.80;;;1.23;;
62582;SDS011;48641;51.676;5.808;2023-07-31T09:24:28;6.43;;;1.58;;
62582;SDS011;48641;51.676;5.808;2023-07-31T09:26:55;5.88;;;1.52;;
62582;SDS011;48641;51.676;5.808;2023-07-31T09:29:23;4.73;;;1.40;;
62582;SDS011;48641;51.676;5.808;2023-07-31T09:31:50;4.53;;;1.50;;
62582;SDS011;48641;51.676;5.808;2023-07-31T09:34:16;5.50;;;1.60;;
62582;SDS011;48641;51.676;5.808;2023-07-31T09:36:42;4.18;;;1.65;;
62582;SDS011;48641;51.676;5.808;2023-07-31T09:39:12;6.18;;;1.50;;
62582;SDS011;48641;51.676;5.808;2023-07-31T09:41:40;4.97;;;1.48;;
62582;SDS011;48641;51.676;5.808;2023-07-31T09:44:07;5.72;;;1.50;;
62582;SDS011;48641;51.676;5.808;2023-07-31T09:46:34;5.60;;;1.83;;
62582;SDS011;48641;51.676;5.808;2023-07-31T09:49:03;4.68;;;1.30;;
62582;SDS011;48641;51.676;5.808;2023-07-31T09:51:34;4.30;;;1.85;;
62582;SDS011;48641;51.676;5.808;2023-07-31T09:54:03;4.75;;;1.77;;
62582;SDS011;48641;51.676;5.808;2023-07-31T09:56:34;4.95;;;1.67;;
62582;SDS011;48641;51.676;5.808;2023-07-31T09:59:01;4.68;;;1.70;;
62582;SDS011;48641;51.676;5.808;2023-07-31T10:01:29;5.93;;;1.67;;
62582;SDS011;48641;51.676;5.808;2023-07-31T10:03:54;4.80;;;1.50;;
62582;SDS011;48641;51.676;5.808;2023-07-31T10:06:22;4.43;;;1.70;;
62582;SDS011;48641;51.676;5.808;2023-07-31T10:08:49;6.20;;;1.80;;
62582;SDS011;48641;51.676;5.808;2023-07-31T10:11:17;6.00;;;1.90;;
62582;SDS011;48641;51.676;5.808;2023-07-31T10:13:44;5.57;;;1.60;;
62582;SDS011;48641;51.676;5.808;2023-07-31T10:16:10;6.05;;;2.00;;
62582;SDS011;48641;51.676;5.808;2023-07-31T10:18:38;5.13;;;1.88;;
62582;SDS011;48641;51.676;5.808;2023-07-31T10:21:05;4.38;;;1.80;;
62582;SDS011;48641;51.676;5.808;2023-07-31T10:23:31;7.00;;;1.90;;
62582;SDS011;48641;51.676;5.808;2023-07-31T10:25:57;3.85;;;1.58;;
62582;SDS011;48641;51.676;5.808;2023-07-31T10:28:29;5.05;;;1.75;;
62582;SDS011;48641;51.676;5.808;2023-07-31T10:30:56;6.18;;;2.00;;
62582;SDS011;48641;51.676;5.808;2023-07-31T10:33:22;5.15;;;1.60;;
62582;SDS011;48641;51.676;5.808;2023-07-31T10:35:48;5.72;;;1.67;;
62582;SDS011;48641;51.676;5.808;2023-07-31T10:38:14;5.70;;;1.80;;
62582;SDS011;48641;51.676;5.808;2023-07-31T10:40:39;5.95;;;1.95;;
62582;SDS011;48641;51.676;5.808;2023-07-31T10:43:05;3.97;;;1.70;;
62582;SDS011;48641;51.676;5.808;2023-07-31T10:45:37;5.30;;;1.90;;
62582;SDS011;48641;51.676;5.808;2023-07-31T10:48:05;4.35;;;2.00;;
62582;SDS011;48641;51.676;5.808;2023-07-31T10:50:32;4.70;;;1.80;;
62582;SDS011;48641;51.676;5.808;2023-07-31T10:53:02;4.43;;;1.50;;
62582;SDS011;48641;51.676;5.808;2023-07-31T10:55:46;5.38;;;1.85;;
62582;SDS011;48641;51.676;5.808;2023-07-31T10:58:14;5.20;;;1.88;;
62582;SDS011;48641;51.676;5.808;2023-07-31T11:03:10;4.25;;;1.70;;
62582;SDS011;48641;51.676;5.808;2023-07-31T11:08:21;5.25;;;2.22;;
62582;SDS011;48641;51.676;5.808;2023-07-31T11:11:04;4.53;;;1.85;;
62582;SDS011;48641;51.676;5.808;2023-07-31T11:13:32;3.85;;;1.60;;
62582;SDS011;48641;51.676;5.808;2023-07-31T11:16:07;7.20;;;1.70;;
62582;SDS011;48641;51.676;5.808;2023-07-31T11:18:33;4.85;;;1.73;;
62582;SDS011;48641;51.676;5.808;2023-07-31T11:20:58;3.95;;;1.70;;
62582;SDS011;48641;51.676;5.808;2023-07-31T11:23:24;6.45;;;2.05;;
62582;SDS011;48641;51.676;5.808;2023-07-31T11:25:50;5.45;;;1.90;;
62582;SDS011;48641;51.676;5.808;2023-07-31T11:28:16;6.80;;;1.85;;
62582;SDS011;48641;51.676;5.808;2023-07-31T11:30:44;5.53;;;2.20;;
62582;SDS011;48641;51.676;5.808;2023-07-31T11:33:11;5.13;;;1.80;;
62582;SDS011;48641;51.676;5.808;2023-07-31T11:35:41;4.18;;;1.73;;
62582;SDS011;48641;51.676;5.808;2023-07-31T11:38:12;4.82;;;1.65;;
62582;SDS011;48641;51.676;5.808;2023-07-31T11:40:47;4.45;;;1.77;;
62582;SDS011;48641;51.676;5.808;2023-07-31T11:43:13;5.22;;;1.80;;
62582;SDS011;48641;51.676;5.808;2023-07-31T11:45:42;4.70;;;1.85;;
62582;SDS011;48641;51.676;5.808;2023-07-31T11:48:18;4.97;;;1.70;;
62582;SDS011;48641;51.676;5.808;2023-07-31T11:50:44;5.07;;;1.70;;
62582;SDS011;48641;51.676;5.808;2023-07-31T11:53:11;4.97;;;1.90;;
62582;SDS011;48641;51.676;5.808;2023-07-31T11:55:38;4.50;;;1.88;;
62582;SDS011;48641;51.676;5.808;2023-07-31T11:58:04;4.03;;;1.65;;
62582;SDS011;48641;51.676;5.808;2023-07-31T12:00:30;4.03;;;1.50;;
62582;SDS011;48641;51.676;5.808;2023-07-31T12:02:56;4.38;;;1.50;;
62582;SDS011;48641;51.676;5.808;2023-07-31T12:05:22;4.50;;;1.70;;
62582;SDS011;48641;51.676;5.808;2023-07-31T12:07:52;4.05;;;1.50;;
62582;SDS011;48641;51.676;5.808;2023-07-31T12:10:29;5.53;;;1.90;;
62582;SDS011;48641;51.676;5.808;2023-07-31T12:13:10;3.90;;;1.70;;
62582;SDS011;48641;51.676;5.808;2023-07-31T12:15:41;3.53;;;1.45;;
62582;SDS011;48641;51.676;5.808;2023-07-31T12:18:12;4.33;;;1.87;;
62582;SDS011;48641;51.676;5.808;2023-07-31T12:20:46;6.20;;;1.80;;
62582;SDS011;48641;51.676;5.808;2023-07-31T12:23:27;4.55;;;1.73;;
62582;SDS011;48641;51.676;5.808;2023-07-31T12:31:20;5.60;;;1.85;;
62582;SDS011;48641;51.676;5.808;2023-07-31T12:33:48;4.53;;;1.50;;
62582;SDS011;48641;51.676;5.808;2023-07-31T12:36:16;4.40;;;1.92;;
62582;SDS011;48641;51.676;5.808;2023-07-31T12:38:43;5.00;;;1.77;;
62582;SDS011;48641;51.676;5.808;2023-07-31T12:41:08;4.70;;;1.67;;
62582;SDS011;48641;51.676;5.808;2023-07-31T12:43:35;4.68;;;1.63;;
62582;SDS011;48641;51.676;5.808;2023-07-31T12:46:05;4.60;;;1.75;;
62582;SDS011;48641;51.676;5.808;2023-07-31T12:48:34;4.70;;;1.67;;
62582;SDS011;48641;51.676;5.808;2023-07-31T12:51:00;4.55;;;1.80;;
62582;SDS011;48641;51.676;5.808;2023-07-31T12:53:27;3.88;;;1.70;;
62582;SDS011;48641;51.676;5.808;2023-07-31T12:55:52;3.80;;;1.70;;
62582;SDS011;48641;51.676;5.808;2023-07-31T12:58:18;4.85;;;2.00;;
62582;SDS011;48641;51.676;5.808;2023-07-31T13:00:44;4.78;;;1.75;;
62582;SDS011;48641;51.676;5.808;2023-07-31T13:03:09;4.18;;;1.77;;
62582;SDS011;48641;51.676;5.808;2023-07-31T13:05:35;4.20;;;1.58;;
62582;SDS011;48641;51.676;5.808;2023-07-31T13:08:01;4.38;;;1.55;;
62582;SDS011;48641;51.676;5.808;2023-07-31T13:10:27;3.42;;;1.35;;
62582;SDS011;48641;51.676;5.808;2023-07-31T13:12:53;3.72;;;1.50;;
62582;SDS011;48641;51.676;5.808;2023-07-31T13:15:20;5.03;;;1.85;;
62582;SDS011;48641;51.676;5.808;2023-07-31T13:17:46;4.75;;;1.85;;
62582;SDS011;48641;51.676;5.808;2023-07-31T13:20:12;5.57;;;1.90;;
62582;SDS011;48641;51.676;5.808;2023-07-31T13:22:37;4.50;;;1.90;;
62582;SDS011;48641;51.676;5.808;2023-07-31T13:25:03;4.20;;;1.58;;
62582;SDS011;48641;51.676;5.808;2023-07-31T13:27:30;4.18;;;1.70;;
62582;SDS011;48641;51.676;5.808;2023-07-31T13:29:56;3.85;;;1.65;;
62582;SDS011;48641;51.676;5.808;2023-07-31T13:32:22;3.88;;;1.50;;
62582;SDS011;48641;51.676;5.808;2023-07-31T13:34:48;5.32;;;1.80;;
62582;SDS011;48641;51.676;5.808;2023-07-31T13:37:14;3.95;;;1.60;;
62582;SDS011;48641;51.676;5.808;2023-07-31T13:39:41;4.00;;;1.50;;
62582;SDS011;48641;51.676;5.808;2023-07-31T13:42:08;5.07;;;1.60;;
62582;SDS011;48641;51.676;5.808;2023-07-31T13:44:36;4.32;;;1.60;;
62582;SDS011;48641;51.676;5.808;2023-07-31T13:47:03;5.38;;;1.98;;
62582;SDS011;48641;51.676;5.808;2023-07-31T13:49:29;3.95;;;1.60;;
62582;SDS011;48641;51.676;5.808;2023-07-31T13:51:55;4.25;;;1.58;;
62582;SDS011;48641;51.676;5.808;2023-07-31T13:54:22;4.13;;;1.75;;
62582;SDS011;48641;51.676;5.808;2023-07-31T13:56:48;4.20;;;1.55;;
62582;SDS011;48641;51.676;5.808;2023-07-31T13:59:13;4.85;;;1.77;;
62582;SDS011;48641;51.676;5.808;2023-07-31T14:01:41;5.60;;;2.10;;
62582;SDS011;48641;51.676;5.808;2023-07-31T14:04:07;5.07;;;1.90;;
62582;SDS011;48641;51.676;5.808;2023-07-31T14:06:33;4.97;;;1.90;;
62582;SDS011;48641;51.676;5.808;2023-07-31T14:08:59;4.57;;;1.77;;
62582;SDS011;48641;51.676;5.808;2023-07-31T14:11:25;4.30;;;1.77;;
62582;SDS011;48641;51.676;5.808;2023-07-31T14:13:51;5.20;;;1.88;;
62582;SDS011;48641;51.676;5.808;2023-07-31T14:16:17;5.70;;;2.10;;
62582;SDS011;48641;51.676;5.808;2023-07-31T14:18:43;4.55;;;1.88;;
62582;SDS011;48641;51.676;5.808;2023-07-31T14:21:10;4.90;;;1.98;;
62582;SDS011;48641;51.676;5.808;2023-07-31T14:23:37;4.95;;;1.90;;
62582;SDS011;48641;51.676;5.808;2023-07-31T14:26:02;5.18;;;1.77;;
62582;SDS011;48641;51.676;5.808;2023-07-31T14:28:28;4.75;;;1.70;;
62582;SDS011;48641;51.676;5.808;2023-07-31T14:30:54;5.05;;;1.85;;
62582;SDS011;48641;51.676;5.808;2023-07-31T14:33:19;4.53;;;1.80;;
62582;SDS011;48641;51.676;5.808;2023-07-31T14:35:45;5.65;;;1.98;;
62582;SDS011;48641;51.676;5.808;2023-07-31T14:38:11;5.00;;;1.90;;
62582;SDS011;48641;51.676;5.808;2023-07-31T14:40:36;5.10;;;1.80;;
62582;SDS011;48641;51.676;5.808;2023-07-31T14:43:03;5.10;;;1.80;;
62582;SDS011;48641;51.676;5.808;2023-07-31T14:45:47;5.80;;;2.10;;
62582;SDS011;48641;51.676;5.808;2023-07-31T14:48:13;5.10;;;2.03;;
62582;SDS011;48641;51.676;5.808;2023-07-31T14:50:39;5.45;;;2.00;;
62582;SDS011;48641;51.676;5.808;2023-07-31T14:53:05;5.47;;;2.05;;
62582;SDS011;48641;51.676;5.808;2023-07-31T14:55:30;3.90;;;1.77;;
62582;SDS011;48641;51.676;5.808;2023-07-31T14:57:56;4.45;;;1.85;;
62582;SDS011;48641;51.676;5.808;2023-07-31T15:00:21;6.43;;;2.28;;
62582;SDS011;48641;51.676;5.808;2023-07-31T15:02:49;5.75;;;2.10;;
62582;SDS011;48641;51.676;5.808;2023-07-31T15:05:15;4.88;;;2.20;;
62582;SDS011;48641;51.676;5.808;2023-07-31T15:07:40;4.35;;;1.70;;